FDX6856 ZGGG-RPLC
Flight info
| Callsign | FDX6856 |
|---|---|
| Flight time | 1h 41m |
| Altitude | 24600 |
| Route | VIBOS9 VIBOS R473 SIERA/N0484F390 DCT MULET DCT SKATE V642 NOMAN A461 SANRO W4 MALIB MALIB3P |
| Aircraft | B77L/H-SDE1E2E3FGHIJ2J3J4J5M1RWXY/LB1D1 |
Departure
| Time | 2026-04-25 06:03 |
|---|---|
| Airport | Guangzhou Baiyun International Airport (ZGGG) |
Arrival
| Time | 2026-04-25 07:45 |
|---|---|
| Airport | Clark International Airport / Clark Air Base (RPLC) |
| Time | Latitude | Longitude | Altitude | Speed | Heading |
|---|---|---|---|---|---|
| 2026-04-25 05:46 | 23.39792 | 113.32147 | 63 ft | 0 kts | 104° |
| 2026-04-25 05:52 | 23.39793 | 113.32139 | 67 ft | 4 kts | 102° |
| 2026-04-25 05:52 | 23.39798 | 113.32111 | 54 ft | 4 kts | 97° |
| 2026-04-25 05:52 | 23.39802 | 113.32082 | 55 ft | 4 kts | 107° |
| 2026-04-25 05:53 | 23.39812 | 113.32062 | 58 ft | 3 kts | 138° |
| 2026-04-25 05:53 | 23.39829 | 113.32051 | 54 ft | 4 kts | 179° |
| 2026-04-25 05:53 | 23.39854 | 113.32055 | 54 ft | 4 kts | 194° |
| 2026-04-25 05:53 | 23.39860 | 113.32056 | 54 ft | 0 kts | 194° |
| 2026-04-25 05:56 | 23.39856 | 113.32055 | 54 ft | 3 kts | 194° |
| 2026-04-25 05:56 | 23.39788 | 113.32037 | 54 ft | 15 kts | 194° |
| 2026-04-25 05:57 | 23.39691 | 113.31994 | 55 ft | 16 kts | 237° |
| 2026-04-25 05:57 | 23.39703 | 113.31869 | 59 ft | 18 kts | 286° |
| 2026-04-25 05:57 | 23.39710 | 113.31730 | 54 ft | 20 kts | 226° |
| 2026-04-25 05:57 | 23.39573 | 113.31678 | 58 ft | 25 kts | 194° |
| 2026-04-25 05:58 | 23.39390 | 113.31628 | 58 ft | 26 kts | 193° |
| 2026-04-25 05:58 | 23.39213 | 113.31579 | 57 ft | 26 kts | 194° |
| 2026-04-25 05:58 | 23.39037 | 113.31530 | 55 ft | 26 kts | 194° |
| 2026-04-25 05:58 | 23.38862 | 113.31482 | 55 ft | 26 kts | 193° |
| 2026-04-25 05:59 | 23.38682 | 113.31437 | 56 ft | 26 kts | 193° |
| 2026-04-25 05:59 | 23.38508 | 113.31390 | 58 ft | 26 kts | 194° |
| 2026-04-25 05:59 | 23.38326 | 113.31340 | 60 ft | 27 kts | 193° |
| 2026-04-25 05:59 | 23.38141 | 113.31291 | 56 ft | 27 kts | 194° |
| 2026-04-25 06:00 | 23.37956 | 113.31240 | 55 ft | 27 kts | 194° |
| 2026-04-25 06:00 | 23.37770 | 113.31192 | 57 ft | 28 kts | 193° |
| 2026-04-25 06:00 | 23.37585 | 113.31142 | 57 ft | 28 kts | 194° |
| 2026-04-25 06:00 | 23.37399 | 113.31089 | 56 ft | 28 kts | 194° |
| 2026-04-25 06:01 | 23.37209 | 113.31038 | 58 ft | 28 kts | 194° |
| 2026-04-25 06:01 | 23.37021 | 113.30987 | 58 ft | 21 kts | 194° |
| 2026-04-25 06:01 | 23.36944 | 113.30915 | 57 ft | 15 kts | 264° |
| 2026-04-25 06:01 | 23.36969 | 113.30799 | 55 ft | 17 kts | 315° |
| 2026-04-25 06:02 | 23.37076 | 113.30801 | 56 ft | 0 kts | 15° |
| 2026-04-25 06:02 | 23.37194 | 113.30836 | 54 ft | 46 kts | 14° |
| 2026-04-25 06:03 | 23.37810 | 113.31002 | 56 ft | 133 kts | 13° |
| 2026-04-25 06:03 | 23.38931 | 113.31309 | 57 ft | 195 kts | 14° |
| 2026-04-25 06:03 | 23.40296 | 113.31671 | 730 ft | 199 kts | 13° |
| 2026-04-25 06:03 | 23.41649 | 113.31985 | 1721 ft | 199 kts | 10° |
| 2026-04-25 06:04 | 23.43032 | 113.32268 | 2699 ft | 209 kts | 11° |
| 2026-04-25 06:04 | 23.44494 | 113.32548 | 3674 ft | 219 kts | 11° |
| 2026-04-25 06:04 | 23.46012 | 113.32910 | 4723 ft | 227 kts | 13° |
| 2026-04-25 06:04 | 23.47547 | 113.33265 | 5841 ft | 225 kts | 8° |
| 2026-04-25 06:05 | 23.49084 | 113.33433 | 6955 ft | 221 kts | 2° |
| 2026-04-25 06:05 | 23.50629 | 113.33567 | 7801 ft | 226 kts | 4° |
| 2026-04-25 06:05 | 23.52237 | 113.33757 | 8461 ft | 239 kts | 5° |
| 2026-04-25 06:05 | 23.53915 | 113.34010 | 9238 ft | 246 kts | 7° |
| 2026-04-25 06:06 | 23.55606 | 113.34321 | 10196 ft | 246 kts | 8° |
| 2026-04-25 06:06 | 23.57281 | 113.34676 | 11137 ft | 244 kts | 8° |
| 2026-04-25 06:06 | 23.58945 | 113.35065 | 12118 ft | 246 kts | 9° |
| 2026-04-25 06:06 | 23.60616 | 113.35496 | 13122 ft | 248 kts | 9° |
| 2026-04-25 06:07 | 23.62314 | 113.35916 | 14047 ft | 253 kts | 8° |
| 2026-04-25 06:07 | 23.64042 | 113.36253 | 14856 ft | 257 kts | 3° |
| 2026-04-25 06:07 | 23.65860 | 113.36431 | 15717 ft | 261 kts | 358° |
| 2026-04-25 06:07 | 23.67679 | 113.36445 | 16612 ft | 263 kts | 353° |
| 2026-04-25 06:08 | 23.69499 | 113.36275 | 17523 ft | 262 kts | 347° |
| 2026-04-25 06:08 | 23.71289 | 113.35932 | 18442 ft | 262 kts | 342° |
| 2026-04-25 06:08 | 23.73061 | 113.35413 | 19152 ft | 266 kts | 336° |
| 2026-04-25 06:08 | 23.74812 | 113.34703 | 19739 ft | 272 kts | 327° |
| 2026-04-25 06:09 | 23.76231 | 113.33285 | 19876 ft | 289 kts | 296° |
| 2026-04-25 06:09 | 23.76759 | 113.31144 | 20078 ft | 312 kts | 269° |
| 2026-04-25 06:09 | 23.76204 | 113.28727 | 20265 ft | 343 kts | 246° |
| 2026-04-25 06:09 | 23.74905 | 113.26466 | 20433 ft | 367 kts | 238° |
| 2026-04-25 06:10 | 23.73450 | 113.24090 | 20528 ft | 387 kts | 233° |
| 2026-04-25 06:10 | 23.71294 | 113.22172 | 20803 ft | 416 kts | 212° |
| 2026-04-25 06:10 | 23.68632 | 113.20827 | 21439 ft | 427 kts | 206° |
| 2026-04-25 06:10 | 23.65893 | 113.19539 | 22186 ft | 431 kts | 208° |
| 2026-04-25 06:11 | 23.63196 | 113.18104 | 23043 ft | 431 kts | 211° |
| 2026-04-25 06:11 | 23.60571 | 113.16521 | 23840 ft | 432 kts | 213° |
| 2026-04-25 06:11 | 23.57982 | 113.14836 | 24431 ft | 436 kts | 214° |
| 2026-04-25 06:11 | 23.55369 | 113.13091 | 24940 ft | 444 kts | 214° |
| 2026-04-25 06:12 | 23.52719 | 113.11328 | 25495 ft | 449 kts | 214° |
| 2026-04-25 06:12 | 23.49949 | 113.09707 | 26083 ft | 457 kts | 206° |
| 2026-04-25 06:12 | 23.46907 | 113.08599 | 26658 ft | 466 kts | 198° |
| 2026-04-25 06:12 | 23.43693 | 113.07941 | 27235 ft | 475 kts | 191° |
| 2026-04-25 06:13 | 23.40353 | 113.07823 | 27792 ft | 485 kts | 182° |
| 2026-04-25 06:13 | 23.36958 | 113.07941 | 28342 ft | 490 kts | 182° |
| 2026-04-25 06:13 | 23.33534 | 113.08024 | 28860 ft | 494 kts | 183° |
| 2026-04-25 06:14 | 23.26605 | 113.08632 | 29846 ft | 509 kts | 173° |
| 2026-04-25 06:14 | 23.23177 | 113.09540 | 30278 ft | 516 kts | 168° |
| 2026-04-25 06:14 | 23.19740 | 113.10860 | 30866 ft | 519 kts | 161° |
| 2026-04-25 06:14 | 23.16493 | 113.12385 | 31550 ft | 515 kts | 161° |
| 2026-04-25 06:15 | 23.13211 | 113.13940 | 32188 ft | 513 kts | 161° |
| 2026-04-25 06:15 | 23.09935 | 113.15468 | 32744 ft | 513 kts | 162° |
| 2026-04-25 06:15 | 23.06763 | 113.16919 | 33254 ft | 513 kts | 163° |
| 2026-04-25 06:15 | 23.03473 | 113.18411 | 33798 ft | 512 kts | 163° |
| 2026-04-25 06:16 | 23.00157 | 113.19771 | 34276 ft | 508 kts | 168° |
| 2026-04-25 06:16 | 22.96797 | 113.20951 | 34701 ft | 507 kts | 169° |
| 2026-04-25 06:16 | 22.93435 | 113.22095 | 35116 ft | 507 kts | 170° |
| 2026-04-25 06:16 | 22.90064 | 113.23235 | 35504 ft | 508 kts | 170° |
| 2026-04-25 06:17 | 22.86692 | 113.24384 | 35914 ft | 508 kts | 170° |
| 2026-04-25 06:17 | 22.83325 | 113.25543 | 36333 ft | 508 kts | 170° |
| 2026-04-25 06:17 | 22.79957 | 113.26709 | 36747 ft | 508 kts | 171° |
| 2026-04-25 06:17 | 22.76597 | 113.27877 | 37141 ft | 508 kts | 171° |
| 2026-04-25 06:18 | 22.73228 | 113.29047 | 37530 ft | 508 kts | 171° |
| 2026-04-25 06:18 | 22.69869 | 113.30213 | 37924 ft | 508 kts | 171° |
| 2026-04-25 06:18 | 22.66493 | 113.31381 | 38017 ft | 512 kts | 171° |
| 2026-04-25 06:19 | 22.59885 | 113.33669 | 38004 ft | 510 kts | 171° |
| 2026-04-25 06:19 | 22.53067 | 113.36037 | 37994 ft | 504 kts | 172° |
| 2026-04-25 06:20 | 22.47465 | 113.37969 | 38023 ft | 512 kts | 172° |
| 2026-04-25 06:20 | 22.40306 | 113.40438 | 38022 ft | 519 kts | 171° |
| 2026-04-25 06:21 | 22.33426 | 113.42822 | 38020 ft | 520 kts | 171° |
| 2026-04-25 06:21 | 22.26537 | 113.45204 | 38011 ft | 520 kts | 172° |
| 2026-04-25 06:22 | 22.19649 | 113.47596 | 38021 ft | 520 kts | 171° |
| 2026-04-25 06:22 | 22.12794 | 113.50097 | 38022 ft | 520 kts | 170° |
| 2026-04-25 06:23 | 22.05943 | 113.52604 | 38013 ft | 519 kts | 171° |
| 2026-04-25 06:23 | 21.99130 | 113.55168 | 38017 ft | 522 kts | 167° |
| 2026-04-25 06:24 | 21.92575 | 113.58766 | 38015 ft | 533 kts | 159° |
| 2026-04-25 06:24 | 21.86179 | 113.62792 | 38017 ft | 532 kts | 158° |
| 2026-04-25 06:25 | 21.79777 | 113.66765 | 38012 ft | 531 kts | 159° |
| 2026-04-25 06:25 | 21.73366 | 113.70677 | 38007 ft | 530 kts | 159° |
| 2026-04-25 06:26 | 21.66955 | 113.74584 | 38008 ft | 529 kts | 159° |
| 2026-04-25 06:26 | 21.61065 | 113.79418 | 38007 ft | 554 kts | 134° |
| 2026-04-25 06:26 | 21.59047 | 113.82996 | 38021 ft | 568 kts | 118° |
| 2026-04-25 06:27 | 21.57890 | 113.87083 | 38002 ft | 578 kts | 100° |
| 2026-04-25 06:27 | 21.57538 | 113.95708 | 38008 ft | 580 kts | 91° |
| 2026-04-25 06:28 | 21.57459 | 114.04396 | 38012 ft | 583 kts | 92° |
| 2026-04-25 06:28 | 21.57243 | 114.13106 | 38009 ft | 584 kts | 93° |
| 2026-04-25 06:29 | 21.56972 | 114.20414 | 38010 ft | 585 kts | 94° |
| 2026-04-25 06:29 | 21.56623 | 114.29142 | 38008 ft | 585 kts | 94° |
| 2026-04-25 06:30 | 21.56282 | 114.37880 | 38002 ft | 585 kts | 94° |
| 2026-04-25 06:30 | 21.55949 | 114.46602 | 38001 ft | 584 kts | 94° |
| 2026-04-25 06:31 | 21.55613 | 114.55320 | 38015 ft | 584 kts | 94° |
| 2026-04-25 06:31 | 21.55271 | 114.64034 | 38005 ft | 583 kts | 94° |
| 2026-04-25 06:32 | 21.54924 | 114.72731 | 38007 ft | 582 kts | 94° |
| 2026-04-25 06:32 | 21.54573 | 114.81414 | 38002 ft | 582 kts | 94° |
| 2026-04-25 06:33 | 21.54218 | 114.90083 | 37999 ft | 581 kts | 94° |
| 2026-04-25 06:33 | 21.53860 | 114.98742 | 38006 ft | 581 kts | 94° |
| 2026-04-25 06:34 | 21.53459 | 115.07393 | 37998 ft | 578 kts | 98° |
| 2026-04-25 06:34 | 21.52738 | 115.11620 | 38002 ft | 573 kts | 109° |
| 2026-04-25 06:34 | 21.51436 | 115.15637 | 38020 ft | 567 kts | 118° |
| 2026-04-25 06:35 | 21.47495 | 115.22808 | 38006 ft | 551 kts | 134° |
| 2026-04-25 06:35 | 21.42752 | 115.29263 | 38001 ft | 551 kts | 135° |
| 2026-04-25 06:36 | 21.38014 | 115.35737 | 38000 ft | 552 kts | 134° |
| 2026-04-25 06:36 | 21.33324 | 115.42281 | 37995 ft | 553 kts | 134° |
| 2026-04-25 06:37 | 21.28655 | 115.48846 | 37996 ft | 554 kts | 134° |
| 2026-04-25 06:37 | 21.23982 | 115.55403 | 37993 ft | 553 kts | 134° |
| 2026-04-25 06:38 | 21.19300 | 115.61952 | 37993 ft | 553 kts | 134° |
| 2026-04-25 06:38 | 21.14618 | 115.68489 | 37990 ft | 553 kts | 134° |
| 2026-04-25 06:39 | 21.09939 | 115.75015 | 37987 ft | 552 kts | 134° |
| 2026-04-25 06:39 | 21.05261 | 115.81534 | 37982 ft | 552 kts | 134° |
| 2026-04-25 06:40 | 21.00580 | 115.88050 | 37995 ft | 551 kts | 134° |
| 2026-04-25 06:40 | 20.95905 | 115.94550 | 37988 ft | 551 kts | 133° |
| 2026-04-25 06:41 | 20.91231 | 116.01042 | 37988 ft | 551 kts | 133° |
| 2026-04-25 06:41 | 20.86439 | 116.07320 | 37988 ft | 544 kts | 140° |
| 2026-04-25 06:42 | 20.80859 | 116.12646 | 37988 ft | 534 kts | 150° |
| 2026-04-25 06:42 | 20.74732 | 116.16987 | 37981 ft | 526 kts | 155° |
| 2026-04-25 06:43 | 20.68508 | 116.21109 | 37980 ft | 527 kts | 155° |
| 2026-04-25 06:43 | 20.62296 | 116.25260 | 37983 ft | 527 kts | 155° |
| 2026-04-25 06:44 | 20.56095 | 116.29447 | 37981 ft | 528 kts | 155° |
| 2026-04-25 06:44 | 20.49898 | 116.33638 | 37976 ft | 528 kts | 154° |
| 2026-04-25 06:45 | 20.43691 | 116.37830 | 37974 ft | 528 kts | 154° |
| 2026-04-25 06:45 | 20.37484 | 116.42015 | 37974 ft | 528 kts | 154° |
| 2026-04-25 06:46 | 20.31273 | 116.46196 | 37971 ft | 528 kts | 154° |
| 2026-04-25 06:46 | 20.25060 | 116.50377 | 37968 ft | 528 kts | 154° |
| 2026-04-25 06:47 | 20.18851 | 116.54551 | 37969 ft | 528 kts | 154° |
| 2026-04-25 06:47 | 20.12643 | 116.58720 | 37971 ft | 528 kts | 154° |
| 2026-04-25 06:48 | 20.06438 | 116.62884 | 37969 ft | 527 kts | 154° |
| 2026-04-25 06:48 | 20.00374 | 116.67318 | 37978 ft | 533 kts | 147° |
| 2026-04-25 06:49 | 19.95004 | 116.72776 | 37972 ft | 541 kts | 138° |
| 2026-04-25 06:49 | 19.89960 | 116.78724 | 37967 ft | 542 kts | 137° |
| 2026-04-25 06:50 | 19.84919 | 116.84678 | 37980 ft | 542 kts | 137° |
| 2026-04-25 06:50 | 19.79844 | 116.90589 | 37957 ft | 541 kts | 137° |
| 2026-04-25 06:51 | 19.74750 | 116.96478 | 37951 ft | 541 kts | 138° |
| 2026-04-25 06:51 | 19.69658 | 117.02356 | 37962 ft | 541 kts | 138° |
| 2026-04-25 06:52 | 19.64571 | 117.08228 | 37954 ft | 540 kts | 137° |
| 2026-04-25 06:52 | 19.59495 | 117.14086 | 37956 ft | 539 kts | 137° |
| 2026-04-25 06:53 | 19.54418 | 117.19938 | 37952 ft | 539 kts | 137° |
| 2026-04-25 06:53 | 19.49348 | 117.25776 | 37953 ft | 538 kts | 137° |
| 2026-04-25 06:54 | 19.44279 | 117.31607 | 37952 ft | 537 kts | 137° |
| 2026-04-25 06:54 | 19.39216 | 117.37425 | 37959 ft | 537 kts | 137° |
| 2026-04-25 06:55 | 19.34159 | 117.43232 | 37952 ft | 536 kts | 137° |
| 2026-04-25 06:55 | 19.29105 | 117.49028 | 37950 ft | 535 kts | 137° |
| 2026-04-25 06:56 | 19.24054 | 117.54816 | 37950 ft | 535 kts | 137° |
| 2026-04-25 06:56 | 19.19008 | 117.60593 | 37952 ft | 534 kts | 137° |
| 2026-04-25 06:57 | 19.13969 | 117.66356 | 37947 ft | 533 kts | 137° |
| 2026-04-25 06:57 | 19.08936 | 117.72107 | 37944 ft | 532 kts | 137° |
| 2026-04-25 06:58 | 19.03912 | 117.77843 | 37943 ft | 531 kts | 137° |
| 2026-04-25 06:58 | 18.98889 | 117.83566 | 37940 ft | 531 kts | 137° |
| 2026-04-25 06:59 | 18.93901 | 117.89237 | 37938 ft | 530 kts | 137° |
| 2026-04-25 06:59 | 18.88888 | 117.94933 | 37936 ft | 529 kts | 137° |
| 2026-04-25 07:00 | 18.83879 | 118.00622 | 37937 ft | 528 kts | 137° |
| 2026-04-25 07:00 | 18.78878 | 118.06296 | 37933 ft | 528 kts | 137° |
| 2026-04-25 07:01 | 18.73878 | 118.11965 | 37935 ft | 527 kts | 137° |
| 2026-04-25 07:01 | 18.68885 | 118.17620 | 37936 ft | 527 kts | 137° |
| 2026-04-25 07:02 | 18.63890 | 118.23271 | 37929 ft | 526 kts | 137° |
| 2026-04-25 07:02 | 18.58903 | 118.28909 | 37933 ft | 525 kts | 137° |
| 2026-04-25 07:03 | 18.53916 | 118.34541 | 37930 ft | 525 kts | 137° |
| 2026-04-25 07:03 | 18.48936 | 118.40161 | 37927 ft | 524 kts | 137° |
| 2026-04-25 07:04 | 18.43961 | 118.45770 | 37931 ft | 524 kts | 137° |
| 2026-04-25 07:04 | 18.38986 | 118.51373 | 37928 ft | 523 kts | 137° |
| 2026-04-25 07:05 | 18.34011 | 118.56971 | 37924 ft | 523 kts | 137° |
| 2026-04-25 07:05 | 18.29042 | 118.62558 | 37923 ft | 522 kts | 137° |
| 2026-04-25 07:06 | 18.24078 | 118.68134 | 37922 ft | 522 kts | 137° |
| 2026-04-25 07:06 | 18.19114 | 118.73706 | 37923 ft | 521 kts | 137° |
| 2026-04-25 07:07 | 18.14157 | 118.79265 | 37924 ft | 521 kts | 136° |
| 2026-04-25 07:07 | 18.09199 | 118.84820 | 37924 ft | 520 kts | 136° |
| 2026-04-25 07:08 | 18.04251 | 118.90360 | 37921 ft | 520 kts | 137° |
| 2026-04-25 07:08 | 17.99303 | 118.95895 | 37920 ft | 519 kts | 137° |
| 2026-04-25 07:09 | 17.94362 | 119.01413 | 37920 ft | 518 kts | 137° |
| 2026-04-25 07:09 | 17.89425 | 119.06922 | 37920 ft | 518 kts | 137° |
| 2026-04-25 07:10 | 17.84491 | 119.12426 | 37914 ft | 517 kts | 137° |
| 2026-04-25 07:10 | 17.79562 | 119.17919 | 37919 ft | 517 kts | 137° |
| 2026-04-25 07:11 | 17.74631 | 119.23411 | 37915 ft | 517 kts | 137° |
| 2026-04-25 07:11 | 17.69707 | 119.28891 | 37912 ft | 516 kts | 137° |
| 2026-04-25 07:12 | 17.64780 | 119.34368 | 37913 ft | 516 kts | 136° |
| 2026-04-25 07:12 | 17.58227 | 119.41647 | 37909 ft | 516 kts | 136° |
| 2026-04-25 07:13 | 17.52471 | 119.48033 | 37904 ft | 515 kts | 136° |
| 2026-04-25 07:13 | 17.48380 | 119.52568 | 37903 ft | 515 kts | 137° |
| 2026-04-25 07:14 | 17.43457 | 119.58021 | 37905 ft | 515 kts | 136° |
| 2026-04-25 07:14 | 17.38537 | 119.63466 | 37903 ft | 514 kts | 137° |
| 2026-04-25 07:15 | 17.33634 | 119.68889 | 37903 ft | 514 kts | 136° |
| 2026-04-25 07:15 | 17.28720 | 119.74318 | 37903 ft | 513 kts | 136° |
| 2026-04-25 07:16 | 17.23805 | 119.79745 | 37899 ft | 513 kts | 136° |
| 2026-04-25 07:16 | 17.18903 | 119.85153 | 37896 ft | 512 kts | 136° |
| 2026-04-25 07:17 | 17.13967 | 119.90592 | 37898 ft | 511 kts | 136° |
| 2026-04-25 07:17 | 17.09075 | 119.95980 | 37895 ft | 510 kts | 136° |
| 2026-04-25 07:18 | 17.04231 | 120.01311 | 37895 ft | 509 kts | 136° |
| 2026-04-25 07:18 | 16.99319 | 120.06711 | 37889 ft | 508 kts | 136° |
| 2026-04-25 07:19 | 16.94446 | 120.12066 | 37891 ft | 508 kts | 136° |
| 2026-04-25 07:19 | 16.89578 | 120.17409 | 37894 ft | 508 kts | 136° |
| 2026-04-25 07:20 | 16.84712 | 120.22748 | 37899 ft | 507 kts | 136° |
| 2026-04-25 07:20 | 16.79847 | 120.28082 | 37905 ft | 507 kts | 136° |
| 2026-04-25 07:21 | 16.74871 | 120.33188 | 37860 ft | 501 kts | 146° |
| 2026-04-25 07:21 | 16.71939 | 120.35048 | 37557 ft | 488 kts | 158° |
| 2026-04-25 07:21 | 16.68808 | 120.36315 | 36856 ft | 480 kts | 167° |
| 2026-04-25 07:22 | 16.65527 | 120.36976 | 35591 ft | 483 kts | 176° |
| 2026-04-25 07:22 | 16.62141 | 120.37388 | 34218 ft | 495 kts | 177° |
| 2026-04-25 07:22 | 16.58679 | 120.37782 | 32706 ft | 506 kts | 177° |
| 2026-04-25 07:22 | 16.55156 | 120.38189 | 31474 ft | 511 kts | 176° |
| 2026-04-25 07:23 | 16.51639 | 120.38619 | 30624 ft | 507 kts | 176° |
| 2026-04-25 07:23 | 16.48161 | 120.39063 | 29953 ft | 499 kts | 175° |
| 2026-04-25 07:23 | 16.44735 | 120.39514 | 29222 ft | 492 kts | 175° |
| 2026-04-25 07:23 | 16.41366 | 120.39964 | 28566 ft | 484 kts | 175° |
| 2026-04-25 07:24 | 16.38045 | 120.40409 | 27916 ft | 477 kts | 175° |
| 2026-04-25 07:24 | 16.34775 | 120.40846 | 27252 ft | 471 kts | 175° |
| 2026-04-25 07:24 | 16.31540 | 120.41277 | 26592 ft | 466 kts | 175° |
| 2026-04-25 07:24 | 16.28340 | 120.41701 | 25959 ft | 461 kts | 175° |
| 2026-04-25 07:25 | 16.25179 | 120.42120 | 25349 ft | 455 kts | 175° |
| 2026-04-25 07:25 | 16.22060 | 120.42534 | 24751 ft | 450 kts | 175° |
| 2026-04-25 07:25 | 16.18974 | 120.42942 | 24165 ft | 445 kts | 175° |
| 2026-04-25 07:25 | 16.15926 | 120.43344 | 23586 ft | 440 kts | 175° |
| 2026-04-25 07:26 | 16.12906 | 120.43744 | 22925 ft | 435 kts | 175° |
| 2026-04-25 07:26 | 16.09918 | 120.44138 | 22220 ft | 432 kts | 175° |
| 2026-04-25 07:26 | 16.06949 | 120.44529 | 21522 ft | 429 kts | 175° |
| 2026-04-25 07:26 | 16.03954 | 120.44924 | 20845 ft | 426 kts | 175° |
| 2026-04-25 07:27 | 16.01025 | 120.45311 | 20201 ft | 423 kts | 175° |
| 2026-04-25 07:27 | 15.98116 | 120.45696 | 19588 ft | 420 kts | 175° |
| 2026-04-25 07:27 | 15.95226 | 120.46078 | 18987 ft | 418 kts | 175° |
| 2026-04-25 07:27 | 15.92389 | 120.46451 | 18419 ft | 415 kts | 175° |
| 2026-04-25 07:28 | 15.89530 | 120.46827 | 17800 ft | 413 kts | 175° |
| 2026-04-25 07:28 | 15.86701 | 120.47199 | 17218 ft | 409 kts | 175° |
| 2026-04-25 07:28 | 15.83890 | 120.47570 | 16674 ft | 405 kts | 174° |
| 2026-04-25 07:28 | 15.81827 | 120.47844 | 16217 ft | 401 kts | 174° |
| 2026-04-25 07:29 | 15.79069 | 120.48208 | 15617 ft | 398 kts | 174° |
| 2026-04-25 07:29 | 15.76334 | 120.48569 | 15006 ft | 395 kts | 174° |
| 2026-04-25 07:29 | 15.73621 | 120.48927 | 14438 ft | 391 kts | 174° |
| 2026-04-25 07:29 | 15.70933 | 120.49281 | 13853 ft | 388 kts | 174° |
| 2026-04-25 07:30 | 15.68266 | 120.49631 | 13227 ft | 385 kts | 174° |
| 2026-04-25 07:30 | 15.65620 | 120.49973 | 12605 ft | 381 kts | 174° |
| 2026-04-25 07:30 | 15.62998 | 120.50308 | 11988 ft | 378 kts | 174° |
| 2026-04-25 07:30 | 15.60399 | 120.50644 | 11405 ft | 375 kts | 174° |
| 2026-04-25 07:31 | 15.57822 | 120.50974 | 10797 ft | 372 kts | 174° |
| 2026-04-25 07:31 | 15.55263 | 120.51302 | 10211 ft | 369 kts | 174° |
| 2026-04-25 07:31 | 15.52729 | 120.51629 | 9647 ft | 366 kts | 174° |
| 2026-04-25 07:31 | 15.50206 | 120.51955 | 9040 ft | 362 kts | 173° |
| 2026-04-25 07:32 | 15.47835 | 120.52581 | 8163 ft | 345 kts | 154° |
| 2026-04-25 07:32 | 15.45922 | 120.54001 | 6878 ft | 338 kts | 133° |
| 2026-04-25 07:32 | 15.44475 | 120.55902 | 5679 ft | 333 kts | 126° |
| 2026-04-25 07:32 | 15.43142 | 120.57783 | 5279 ft | 318 kts | 127° |
| 2026-04-25 07:33 | 15.41775 | 120.59684 | 5136 ft | 334 kts | 127° |
| 2026-04-25 07:33 | 15.40441 | 120.61516 | 5001 ft | 298 kts | 127° |
| 2026-04-25 07:33 | 15.39218 | 120.63058 | 4972 ft | 260 kts | 140° |
| 2026-04-25 07:33 | 15.37650 | 120.63882 | 5011 ft | 255 kts | 163° |
| 2026-04-25 07:34 | 15.35881 | 120.64179 | 5008 ft | 260 kts | 175° |
| 2026-04-25 07:34 | 15.34066 | 120.64203 | 5002 ft | 261 kts | 180° |
| 2026-04-25 07:34 | 15.32254 | 120.64163 | 5010 ft | 261 kts | 181° |
| 2026-04-25 07:34 | 15.30460 | 120.64114 | 4998 ft | 262 kts | 180° |
| 2026-04-25 07:35 | 15.28631 | 120.64077 | 4978 ft | 262 kts | 180° |
| 2026-04-25 07:35 | 15.26806 | 120.64038 | 5008 ft | 263 kts | 180° |
| 2026-04-25 07:35 | 15.24971 | 120.64004 | 5007 ft | 264 kts | 179° |
| 2026-04-25 07:35 | 15.23129 | 120.63980 | 5002 ft | 265 kts | 179° |
| 2026-04-25 07:36 | 15.21286 | 120.63952 | 4989 ft | 265 kts | 179° |
| 2026-04-25 07:36 | 15.19447 | 120.63927 | 5018 ft | 265 kts | 180° |
| 2026-04-25 07:36 | 15.17593 | 120.63905 | 5006 ft | 267 kts | 179° |
| 2026-04-25 07:36 | 15.15710 | 120.63885 | 5003 ft | 268 kts | 179° |
| 2026-04-25 07:37 | 15.13846 | 120.63863 | 4996 ft | 268 kts | 179° |
| 2026-04-25 07:37 | 15.11981 | 120.63841 | 5003 ft | 268 kts | 179° |
| 2026-04-25 07:37 | 15.10141 | 120.63818 | 4995 ft | 268 kts | 179° |
| 2026-04-25 07:37 | 15.08253 | 120.63796 | 5003 ft | 267 kts | 179° |
| 2026-04-25 07:38 | 15.06443 | 120.63529 | 5009 ft | 265 kts | 196° |
| 2026-04-25 07:38 | 15.04712 | 120.62857 | 5003 ft | 272 kts | 201° |
| 2026-04-25 07:38 | 15.02945 | 120.62107 | 5005 ft | 276 kts | 201° |
| 2026-04-25 07:38 | 15.01147 | 120.61364 | 5001 ft | 280 kts | 200° |
| 2026-04-25 07:39 | 14.99483 | 120.60427 | 4997 ft | 272 kts | 222° |
| 2026-04-25 07:39 | 14.98407 | 120.58861 | 4997 ft | 266 kts | 250° |
| 2026-04-25 07:39 | 14.98072 | 120.56987 | 4756 ft | 268 kts | 272° |
| 2026-04-25 07:39 | 14.98411 | 120.55132 | 4527 ft | 258 kts | 290° |
| 2026-04-25 07:40 | 14.99038 | 120.53417 | 4301 ft | 252 kts | 292° |
| 2026-04-25 07:40 | 14.99726 | 120.51796 | 4075 ft | 240 kts | 302° |
| 2026-04-25 07:40 | 15.00901 | 120.50655 | 3850 ft | 229 kts | 333° |
| 2026-04-25 07:40 | 15.02368 | 120.50228 | 3677 ft | 208 kts | 355° |
| 2026-04-25 07:41 | 15.03721 | 120.50336 | 3456 ft | 186 kts | 17° |
| 2026-04-25 07:41 | 15.04886 | 120.50763 | 3281 ft | 172 kts | 22° |
| 2026-04-25 07:41 | 15.05974 | 120.51198 | 3135 ft | 162 kts | 22° |
| 2026-04-25 07:41 | 15.06980 | 120.51605 | 3078 ft | 150 kts | 23° |
| 2026-04-25 07:42 | 15.07949 | 120.51998 | 3048 ft | 152 kts | 23° |
| 2026-04-25 07:42 | 15.08951 | 120.52404 | 3017 ft | 156 kts | 22° |
| 2026-04-25 07:42 | 15.09947 | 120.52804 | 3025 ft | 152 kts | 22° |
| 2026-04-25 07:42 | 15.10935 | 120.53194 | 2881 ft | 156 kts | 22° |
| 2026-04-25 07:43 | 15.11956 | 120.53600 | 2489 ft | 153 kts | 21° |
| 2026-04-25 07:43 | 15.12930 | 120.53989 | 2045 ft | 149 kts | 24° |
| 2026-04-25 07:43 | 15.13901 | 120.54384 | 1591 ft | 151 kts | 21° |
| 2026-04-25 07:43 | 15.14880 | 120.54783 | 1190 ft | 152 kts | 21° |
| 2026-04-25 07:44 | 15.15864 | 120.55159 | 851 ft | 153 kts | 21° |
| 2026-04-25 07:44 | 15.16831 | 120.55542 | 644 ft | 146 kts | 22° |
| 2026-04-25 07:44 | 15.17770 | 120.55915 | 451 ft | 141 kts | 21° |
| 2026-04-25 07:44 | 15.18608 | 120.56256 | 437 ft | 112 kts | 22° |
| 2026-04-25 07:45 | 15.19190 | 120.56490 | 431 ft | 68 kts | 21° |
| 2026-04-25 07:45 | 15.19508 | 120.56617 | 427 ft | 36 kts | 21° |
| 2026-04-25 07:45 | 15.19736 | 120.56708 | 435 ft | 37 kts | 20° |
| 2026-04-25 07:45 | 15.19986 | 120.56796 | 428 ft | 30 kts | 18° |
| 2026-04-25 07:46 | 15.20120 | 120.56816 | 430 ft | 18 kts | 330° |
| 2026-04-25 07:46 | 15.20158 | 120.56703 | 440 ft | 18 kts | 260° |
| 2026-04-25 07:46 | 15.20130 | 120.56582 | 432 ft | 15 kts | 253° |
| 2026-04-25 07:46 | 15.20042 | 120.56515 | 433 ft | 19 kts | 203° |
| 2026-04-25 07:47 | 15.19917 | 120.56462 | 435 ft | 20 kts | 202° |
| 2026-04-25 07:47 | 15.19784 | 120.56409 | 431 ft | 21 kts | 200° |
| 2026-04-25 07:47 | 15.19644 | 120.56355 | 426 ft | 22 kts | 200° |
| 2026-04-25 07:47 | 15.19491 | 120.56296 | 425 ft | 24 kts | 201° |
| 2026-04-25 07:48 | 15.19332 | 120.56233 | 435 ft | 25 kts | 201° |
| 2026-04-25 07:48 | 15.19166 | 120.56165 | 434 ft | 26 kts | 201° |
| 2026-04-25 07:48 | 15.19105 | 120.56061 | 431 ft | 18 kts | 278° |
| 2026-04-25 07:48 | 15.19020 | 120.55983 | 427 ft | 21 kts | 203° |
| 2026-04-25 07:49 | 15.18843 | 120.55913 | 428 ft | 28 kts | 201° |
| 2026-04-25 07:49 | 15.18659 | 120.55840 | 431 ft | 28 kts | 201° |
| 2026-04-25 07:49 | 15.18473 | 120.55769 | 434 ft | 29 kts | 200° |
| 2026-04-25 07:49 | 15.18306 | 120.55701 | 433 ft | 14 kts | 205° |
| 2026-04-25 07:50 | 15.18292 | 120.55616 | 434 ft | 15 kts | 292° |
| 2026-04-25 07:50 | 15.18329 | 120.55522 | 432 ft | 14 kts | 291° |
| 2026-04-25 07:50 | 15.18370 | 120.55412 | 428 ft | 19 kts | 289° |
| 2026-04-25 07:50 | 15.18422 | 120.55260 | 434 ft | 24 kts | 289° |
| 2026-04-25 07:51 | 15.18474 | 120.55117 | 427 ft | 16 kts | 291° |
| 2026-04-25 07:51 | 15.18461 | 120.55046 | 429 ft | 17 kts | 221° |
| 2026-04-25 07:51 | 15.18350 | 120.54993 | 431 ft | 12 kts | 199° |
| 2026-04-25 07:51 | 15.18285 | 120.54943 | 428 ft | 10 kts | 267° |
| 2026-04-25 07:52 | 15.18300 | 120.54887 | 440 ft | 6 kts | 289° |
| 2026-04-25 07:52 | 15.18308 | 120.54865 | 433 ft | 0 kts | 289° |
| 2026-04-25 07:52 | 15.18309 | 120.54860 | 429 ft | 0 kts | 290° |